createdAt,value
2017-06-28T13:49:05.483Z,27.71
2017-06-28T13:49:46.395Z,27.55
2017-06-28T13:50:27.299Z,27.39
2017-06-28T13:51:08.205Z,27.33
2017-06-28T13:51:49.099Z,27.32
2017-06-28T13:52:30.004Z,27.18
2017-06-28T13:53:10.910Z,27.25
2017-06-28T13:53:51.821Z,27.37
2017-06-28T13:54:32.722Z,27.25
2017-06-28T13:55:15.128Z,27.33
2017-06-28T13:55:56.020Z,27.3
2017-06-28T13:56:37.007Z,27.33
2017-06-28T13:57:17.898Z,27.36
2017-06-28T13:57:58.817Z,27.4
2017-06-28T13:58:39.714Z,27.42
2017-06-28T13:59:20.615Z,27.39
2017-06-28T14:00:01.532Z,27.44
2017-06-28T14:00:42.419Z,27.48
2017-06-28T14:01:23.329Z,27.3
2017-06-28T14:02:04.216Z,27.22
2017-06-28T14:02:45.121Z,27.2
2017-06-28T14:03:26.007Z,27.37
2017-06-28T14:04:06.914Z,27.18
2017-06-28T14:04:50.782Z,27.22
2017-06-28T14:05:31.680Z,27.21
2017-06-28T14:06:12.620Z,27.08
2017-06-28T14:06:53.523Z,27.1
2017-06-28T14:07:34.419Z,27.07
2017-06-28T14:08:15.313Z,27.14
2017-06-28T14:08:56.218Z,27.15
2017-06-28T14:09:37.132Z,27.02
2017-06-28T14:11:15.566Z,27.11
2017-06-28T14:11:56.471Z,27.14
2017-06-28T14:12:37.369Z,27.2
2017-06-28T14:13:18.271Z,27.17
2017-06-28T14:13:59.173Z,27.2
2017-06-28T14:14:40.068Z,27.11
2017-06-28T14:15:20.971Z,27.11
2017-06-28T14:16:01.876Z,27.18
2017-06-28T14:16:42.770Z,27.17
2017-06-28T14:17:23.675Z,27.05
2017-06-28T14:18:04.578Z,27.02
2017-06-28T14:18:45.478Z,27.17
2017-06-28T14:19:26.382Z,27.12
2017-06-28T14:20:07.270Z,27.18
2017-06-28T14:20:48.153Z,27.08
2017-06-28T14:21:29.044Z,26.99
2017-06-28T14:22:09.934Z,26.97
2017-06-28T14:22:50.832Z,27.08
2017-06-28T14:23:31.719Z,27.07
2017-06-28T14:24:12.644Z,27.03
2017-06-28T14:24:53.537Z,27.1
2017-06-28T14:25:34.473Z,27.14
2017-06-28T14:26:15.326Z,27.11
2017-06-28T14:26:56.230Z,27.08
2017-06-28T14:27:37.139Z,27.12
2017-06-28T14:28:18.065Z,26.97
2017-06-28T14:28:58.966Z,27.03
2017-06-28T14:29:39.873Z,27
2017-06-28T14:30:20.779Z,27.07
2017-06-28T14:31:01.677Z,26.99
2017-06-28T14:31:42.578Z,27.03
2017-06-28T14:32:23.457Z,26.96
2017-06-28T14:33:04.367Z,26.95
2017-06-28T14:33:45.276Z,26.68
2017-06-28T14:34:26.168Z,26.77
2017-06-28T14:35:07.070Z,26.52
2017-06-28T14:35:47.973Z,26.23
2017-06-28T14:36:28.868Z,26.26
2017-06-28T14:37:09.761Z,26.45
2017-06-28T14:37:50.639Z,26.43
2017-06-28T14:38:31.534Z,26.34
2017-06-28T14:39:12.446Z,26.25
2017-06-28T14:39:53.348Z,26.26
2017-06-28T14:40:34.238Z,26.28
2017-06-28T14:41:15.138Z,26.16
2017-06-28T14:41:56.040Z,26.26
2017-06-28T14:42:36.942Z,26.41
2017-06-28T14:43:17.847Z,26.33
2017-06-28T14:43:58.732Z,26.48
2017-06-28T14:44:39.601Z,26.4
2017-06-28T14:45:20.500Z,26.41
2017-06-28T14:46:01.390Z,26.31
2017-06-28T14:46:42.342Z,26.38
2017-06-28T14:47:23.209Z,26.37
2017-06-28T14:48:04.117Z,26.43
2017-06-28T14:48:45.028Z,26.43
2017-06-28T14:49:25.920Z,26.38
2017-06-28T14:50:06.820Z,26.16
2017-06-28T14:50:47.717Z,26.33
2017-06-28T14:51:28.617Z,26.51
2017-06-28T14:52:09.512Z,26.41
2017-06-28T14:52:50.392Z,26.16
2017-06-28T14:53:31.286Z,26.15
2017-06-28T14:54:12.164Z,26.15
2017-06-28T14:54:53.057Z,26
2017-06-28T14:55:33.937Z,25.85
2017-06-28T14:56:14.802Z,25.84
2017-06-28T14:56:55.677Z,25.75
2017-06-28T14:57:36.589Z,25.72
2017-06-28T14:58:17.488Z,25.83
2017-06-28T14:58:58.396Z,25.9
2017-06-28T14:59:39.307Z,25.98
2017-06-28T15:00:20.187Z,26
2017-06-28T15:01:01.073Z,25.99
2017-06-28T15:01:41.973Z,26.03
2017-06-28T15:02:22.887Z,26.06
2017-06-28T15:03:03.790Z,25.95
2017-06-28T15:03:44.679Z,25.96
2017-06-28T15:04:25.568Z,25.99
2017-06-28T15:05:06.456Z,26.05
2017-06-28T15:05:47.361Z,25.93
2017-06-28T15:06:28.265Z,25.91
2017-06-28T15:07:09.171Z,25.9
2017-06-28T15:07:50.067Z,25.85
2017-06-28T15:08:30.946Z,25.9
2017-06-28T15:09:11.830Z,25.87
2017-06-28T15:09:52.715Z,25.98
2017-06-28T15:10:33.617Z,26.09
2017-06-28T15:11:14.502Z,26.15
2017-06-28T15:11:55.389Z,25.96
2017-06-28T15:12:36.297Z,25.93
2017-06-28T15:13:17.184Z,26.13
2017-06-28T15:13:58.079Z,26.15
2017-06-28T15:14:38.986Z,26.19
2017-06-28T15:15:19.882Z,26.03
2017-06-28T15:16:00.789Z,25.9
2017-06-28T15:16:41.680Z,25.93
2017-06-28T15:17:22.582Z,25.98
2017-06-28T15:18:03.479Z,25.99
2017-06-28T15:18:44.369Z,26
2017-06-28T15:19:25.273Z,25.99
2017-06-28T15:20:06.179Z,25.93
2017-06-28T15:20:47.087Z,25.87
2017-06-28T15:21:27.976Z,25.91
2017-06-28T15:22:08.862Z,25.99
2017-06-28T15:22:49.772Z,26.13
2017-06-28T15:23:30.664Z,26.15
2017-06-28T15:24:11.579Z,26.23
2017-06-28T15:24:52.469Z,26.38
2017-06-28T15:25:33.563Z,26.45
2017-06-28T15:27:01.879Z,26.58
2017-06-28T15:27:42.761Z,26.68
2017-06-28T15:28:23.653Z,26.75
2017-06-28T15:29:04.547Z,26.74
2017-06-28T15:29:45.441Z,26.77
2017-06-28T15:30:26.454Z,26.77
2017-06-28T15:31:07.444Z,26.68
2017-06-28T15:32:40.711Z,26.52
2017-06-28T15:33:21.590Z,26.74
2017-06-28T15:34:02.470Z,26.9
2017-06-28T15:34:43.356Z,26.84
2017-06-28T15:35:24.244Z,26.68
2017-06-28T15:36:05.194Z,26.65
2017-06-28T15:36:46.082Z,26.78
2017-06-28T15:37:26.970Z,26.73
2017-06-28T15:38:07.889Z,26.71
2017-06-28T15:38:48.781Z,26.74
2017-06-28T15:39:29.889Z,26.75
2017-06-28T15:40:10.782Z,26.85
2017-06-28T15:40:51.690Z,26.9
2017-06-28T15:41:32.589Z,26.77
2017-06-28T15:42:13.480Z,26.71
2017-06-28T15:42:54.398Z,26.8
2017-06-28T15:43:35.310Z,26.77
2017-06-28T15:44:16.208Z,26.77
2017-06-28T15:44:57.101Z,26.75
2017-06-28T15:45:38.012Z,26.89
2017-06-28T15:46:18.914Z,26.85
2017-06-28T15:46:59.816Z,26.88
2017-06-28T15:47:40.711Z,26.7
2017-06-28T15:48:21.579Z,26.63
2017-06-28T15:49:02.527Z,26.6
2017-06-28T15:49:43.416Z,26.66
2017-06-28T15:50:24.311Z,26.63
2017-06-28T15:51:05.220Z,26.7
2017-06-28T15:51:46.120Z,26.73
2017-06-28T15:52:27.012Z,26.73
2017-06-28T15:53:07.896Z,26.52
2017-06-28T15:53:48.775Z,26.62
2017-06-28T15:54:29.664Z,26.58
2017-06-28T15:55:10.570Z,26.7
2017-06-28T15:55:51.467Z,26.66
2017-06-28T15:56:32.368Z,26.6
2017-06-28T15:57:13.237Z,26.51
2017-06-28T15:57:54.112Z,26.38
2017-06-28T15:58:34.986Z,26.36
2017-06-28T15:59:15.874Z,26.34
2017-06-28T15:59:56.755Z,26.43
2017-06-28T16:00:37.618Z,26.45
2017-06-28T16:01:18.513Z,26.44
2017-06-28T16:01:59.413Z,26.53
2017-06-28T16:02:40.329Z,26.48
2017-06-28T16:03:21.229Z,26.51
2017-06-28T16:04:02.118Z,26.47
2017-06-28T16:04:43.012Z,26.48
2017-06-28T16:05:23.900Z,26.38
2017-06-28T16:06:04.802Z,26.44
2017-06-28T16:06:45.712Z,26.41
2017-06-28T16:07:26.602Z,26.52
2017-06-28T16:08:07.499Z,26.47
2017-06-28T16:08:48.393Z,26.51
2017-06-28T16:09:29.299Z,26.44
2017-06-28T16:10:10.174Z,26.44
2017-06-28T16:10:51.072Z,26.47
2017-06-28T16:11:31.976Z,26.38
2017-06-28T16:12:12.856Z,26.47
2017-06-28T16:12:53.758Z,26.43
2017-06-28T16:13:34.653Z,26.41
2017-06-28T16:14:15.544Z,26.38
2017-06-28T16:14:56.446Z,26.43
2017-06-28T16:15:37.349Z,26.31
2017-06-28T16:16:18.230Z,26.43
2017-06-28T16:16:59.128Z,26.33
2017-06-28T16:17:40.029Z,26.47
2017-06-28T16:18:20.927Z,26.1
2017-06-28T16:19:01.982Z,26.28
2017-06-28T16:19:42.866Z,26.33
2017-06-28T16:20:23.767Z,26.33
2017-06-28T16:21:04.668Z,26.38
2017-06-28T16:21:45.557Z,26.4
2017-06-28T16:22:26.455Z,26.29
2017-06-28T16:23:07.346Z,26.36
2017-06-28T16:23:48.244Z,26.38
2017-06-28T16:24:29.146Z,26.34
2017-06-28T16:25:10.052Z,26.19
2017-06-28T16:25:50.952Z,26.13
2017-06-28T16:26:31.848Z,26.28
2017-06-28T16:27:12.746Z,26.25
2017-06-28T16:27:53.707Z,26.31
2017-06-28T16:28:34.640Z,26.31
2017-06-28T16:29:15.548Z,26.31
2017-06-28T16:29:56.448Z,26.28
2017-06-28T16:30:37.348Z,26.25
2017-06-28T16:31:18.260Z,26.25
2017-06-28T16:31:59.161Z,26.18
2017-06-28T16:32:40.046Z,26.22
2017-06-28T16:33:20.941Z,26.22
2017-06-28T16:34:02.000Z,26.36
2017-06-28T16:34:43.051Z,26.28
2017-06-28T16:35:24.113Z,26.36
2017-06-28T16:36:05.130Z,26.15
2017-06-28T16:36:46.153Z,26.26
2017-06-28T16:37:27.206Z,26.26
2017-06-28T16:38:08.258Z,26.13
2017-06-28T16:38:49.234Z,26.13
2017-06-28T16:39:30.216Z,26.23
2017-06-28T16:40:11.195Z,26.15
2017-06-28T16:40:52.167Z,26.13
2017-06-28T16:41:33.154Z,26.16
2017-06-28T16:42:14.130Z,26.09
2017-06-28T16:42:55.144Z,26.09
2017-06-28T16:43:36.158Z,26.15
2017-06-28T16:44:17.238Z,26.16
2017-06-28T16:44:58.238Z,26.06
2017-06-28T16:45:39.212Z,26.06
2017-06-28T16:46:20.245Z,25.98
2017-06-28T16:47:01.268Z,26.15
2017-06-28T16:47:42.299Z,26.16
2017-06-28T16:48:23.392Z,26.05
2017-06-28T16:49:04.414Z,25.95
2017-06-28T16:49:45.428Z,26
2017-06-28T16:50:26.475Z,25.9
2017-06-28T16:51:07.452Z,25.91
2017-06-28T16:51:48.418Z,25.95
2017-06-28T16:52:29.412Z,25.83
2017-06-28T16:53:10.446Z,25.8
2017-06-28T16:53:51.443Z,25.9
2017-06-28T16:54:32.552Z,25.84
2017-06-28T16:55:13.561Z,25.85
2017-06-28T16:55:54.572Z,25.81
2017-06-28T16:56:35.555Z,25.8
2017-06-28T16:57:16.555Z,25.75
2017-06-28T16:57:57.560Z,25.78
2017-06-28T16:58:38.570Z,25.73
2017-06-28T16:59:19.545Z,25.83
2017-06-28T17:00:00.520Z,25.77
2017-06-28T17:00:41.480Z,25.84
2017-06-28T17:01:22.470Z,25.69
2017-06-28T17:02:03.400Z,25.72
2017-06-28T17:02:44.337Z,25.62
2017-06-28T17:03:25.281Z,25.48
2017-06-28T17:04:06.322Z,25.5
2017-06-28T17:04:47.294Z,25.5
2017-06-28T17:05:28.287Z,25.53
2017-06-28T17:06:09.247Z,25.53
2017-06-28T17:06:50.230Z,25.51
2017-06-28T17:07:31.209Z,25.47
2017-06-28T17:08:12.135Z,25.47
2017-06-28T17:08:53.092Z,25.43
2017-06-28T17:09:34.041Z,25.46
2017-06-28T17:10:14.959Z,25.41
2017-06-28T17:10:55.906Z,25.47
2017-06-28T17:11:36.899Z,25.43
2017-06-28T17:12:17.904Z,25.38
2017-06-28T17:12:58.830Z,25.36
2017-06-28T17:13:39.821Z,25.28
2017-06-28T17:14:20.764Z,25.26
2017-06-28T17:15:01.707Z,25.28
2017-06-28T17:15:42.657Z,25.31
2017-06-28T17:16:23.595Z,25.25
2017-06-28T17:17:04.570Z,25.26
2017-06-28T17:17:45.499Z,25.23
2017-06-28T17:18:26.468Z,25.23
2017-06-28T17:19:08.092Z,25.17
2017-06-28T17:19:49.006Z,25.21
2017-06-28T17:20:29.930Z,25.14
2017-06-28T17:21:10.899Z,25.17
2017-06-28T17:21:51.888Z,25.13
2017-06-28T17:22:32.803Z,25.16
2017-06-28T17:23:13.762Z,25.16
2017-06-28T17:23:54.792Z,25.16
2017-06-28T17:24:35.701Z,25.13
2017-06-28T17:25:16.613Z,25.07
2017-06-28T17:25:57.518Z,25.1
2017-06-28T17:26:38.417Z,25.11
2017-06-28T17:27:19.367Z,25.11
2017-06-28T17:28:00.243Z,25.17
2017-06-28T17:28:41.165Z,25.11
2017-06-28T17:29:22.070Z,25.16
2017-06-28T17:30:03.001Z,25.06
2017-06-28T17:30:43.916Z,25.13
2017-06-28T17:31:24.833Z,25.08
2017-06-28T17:32:05.724Z,24.98
2017-06-28T17:32:46.635Z,24.99
2017-06-28T17:33:27.543Z,25.03
2017-06-28T17:34:08.451Z,25.1
2017-06-28T17:34:49.350Z,25.01
2017-06-28T17:35:30.253Z,25.07
2017-06-28T17:36:11.191Z,24.99
2017-06-28T17:36:52.120Z,25.1
2017-06-28T17:37:33.028Z,25.04
2017-06-28T17:38:50.935Z,24.92
2017-06-28T17:39:31.811Z,24.8
2017-06-28T17:40:12.697Z,24.92
2017-06-28T17:40:53.593Z,24.89
2017-06-28T17:41:34.480Z,24.88
2017-06-28T17:42:15.359Z,24.81
2017-06-28T17:42:56.253Z,24.88
2017-06-28T17:43:37.150Z,24.8
2017-06-28T17:44:18.051Z,24.81
2017-06-28T17:44:58.929Z,24.8
2017-06-28T17:45:39.817Z,24.77
2017-06-28T17:46:20.706Z,24.69
2017-06-28T17:47:01.605Z,24.73
2017-06-28T17:47:42.488Z,24.77
2017-06-28T17:48:23.388Z,24.81
2017-06-28T17:49:04.278Z,24.84
2017-06-28T17:49:45.161Z,24.89
2017-06-28T17:50:26.054Z,24.88
2017-06-28T17:51:06.948Z,24.85
2017-06-28T17:51:47.843Z,24.78
2017-06-28T17:52:28.730Z,24.89
2017-06-28T17:53:09.631Z,24.85
2017-06-28T17:53:50.525Z,24.86
2017-06-28T17:54:31.431Z,24.88
2017-06-28T17:55:12.328Z,24.89
2017-06-28T17:55:53.222Z,24.85
2017-06-28T17:56:34.122Z,24.89
2017-06-28T17:57:15.010Z,24.98
2017-06-28T17:57:55.929Z,24.86
2017-06-28T17:58:36.811Z,24.91
2017-06-28T17:59:17.698Z,24.89
2017-06-28T17:59:58.595Z,24.86
2017-06-28T18:00:39.484Z,24.85
2017-06-28T18:01:20.375Z,24.92
2017-06-28T18:02:01.275Z,24.81
2017-06-28T18:02:42.170Z,24.84
2017-06-28T18:03:23.066Z,24.81
2017-06-28T18:04:03.967Z,24.85
2017-06-28T18:04:44.864Z,24.77
2017-06-28T18:05:25.767Z,24.84
2017-06-28T18:06:06.670Z,24.85
2017-06-28T18:06:47.558Z,24.89
2017-06-28T18:07:28.464Z,24.81
2017-06-28T18:08:09.355Z,24.8
2017-06-28T18:08:50.261Z,24.86
2017-06-28T18:09:31.159Z,24.84
2017-06-28T18:10:12.058Z,24.92
2017-06-28T18:10:52.954Z,24.98
2017-06-28T18:11:33.848Z,24.89
2017-06-28T18:12:14.757Z,24.95
2017-06-28T18:12:55.642Z,24.99
2017-06-28T18:13:36.527Z,24.98
2017-06-28T18:14:17.427Z,24.96
2017-06-28T18:14:58.314Z,24.88
2017-06-28T18:15:39.224Z,24.85
2017-06-28T18:16:20.160Z,24.8
2017-06-28T18:17:01.118Z,24.85
2017-06-28T18:17:42.051Z,24.76
2017-06-28T18:18:22.991Z,24.76
2017-06-28T18:19:03.898Z,24.69
2017-06-28T18:19:44.789Z,24.69
2017-06-28T18:20:25.681Z,24.6
2017-06-28T18:21:06.580Z,24.55
2017-06-28T18:21:47.472Z,24.58
2017-06-28T18:22:28.386Z,24.65
2017-06-28T18:23:09.300Z,24.69
2017-06-28T18:23:50.202Z,24.63
2017-06-28T18:24:31.096Z,24.6
2017-06-28T18:25:11.993Z,24.55
2017-06-28T18:25:52.887Z,24.43
2017-06-28T18:26:33.789Z,24.42
2017-06-28T18:27:14.667Z,24.4
2017-06-28T18:27:55.567Z,24.47
2017-06-28T18:28:36.466Z,24.5
2017-06-28T18:29:17.356Z,24.48
2017-06-28T18:29:58.270Z,24.39
2017-06-28T18:30:39.168Z,24.47
2017-06-28T18:31:20.062Z,24.36
2017-06-28T18:32:00.960Z,24.45
2017-06-28T18:32:41.852Z,24.35
2017-06-28T18:33:22.751Z,24.33
2017-06-28T18:34:03.657Z,24.33
2017-06-28T18:34:44.567Z,24.36
2017-06-28T18:35:25.475Z,24.4
2017-06-28T18:36:06.359Z,24.33
2017-06-28T18:36:47.264Z,24.36
2017-06-28T18:37:28.163Z,24.35
2017-06-28T18:38:09.063Z,24.43
2017-06-28T18:38:49.970Z,24.4
2017-06-28T18:39:30.838Z,24.42
2017-06-28T18:40:11.747Z,24.36
2017-06-28T18:40:52.618Z,24.48
2017-06-28T18:41:33.504Z,24.42
2017-06-28T18:42:14.414Z,24.48
2017-06-28T18:42:55.320Z,24.48
2017-06-28T18:43:36.211Z,24.51
2017-06-28T18:44:17.107Z,24.4
2017-06-28T18:44:58.009Z,24.48
2017-06-28T18:45:38.971Z,24.51
2017-06-28T18:46:19.872Z,24.42
2017-06-28T18:47:00.759Z,24.43
2017-06-28T18:47:41.657Z,24.45
2017-06-28T18:48:22.551Z,24.51
2017-06-28T18:49:03.451Z,24.42
2017-06-28T18:49:44.341Z,24.54
2017-06-28T18:50:25.235Z,24.43
2017-06-28T18:51:06.182Z,24.38
2017-06-28T18:51:47.083Z,24.38
2017-06-28T18:52:27.973Z,24.38
2017-06-28T18:54:21.637Z,24.39
2017-06-28T18:55:02.524Z,24.42
2017-06-28T18:55:43.509Z,24.35
2017-06-28T18:56:24.402Z,24.42
2017-06-28T18:57:05.300Z,24.42
2017-06-28T18:57:46.185Z,24.36
2017-06-28T18:58:27.084Z,24.35
2017-06-28T18:59:07.981Z,24.38
2017-06-28T18:59:48.887Z,24.33
2017-06-28T19:00:29.767Z,24.26
2017-06-28T19:01:10.667Z,24.23
2017-06-28T19:01:51.555Z,24.23
2017-06-28T19:02:32.443Z,24.24
2017-06-28T19:03:13.323Z,24.29
2017-06-28T19:03:54.228Z,24.21
2017-06-28T19:04:35.126Z,24.24
2017-06-28T19:05:16.028Z,24.28
2017-06-28T19:05:56.917Z,24.17
2017-06-28T19:06:37.803Z,24.14
2017-06-28T19:07:18.689Z,24.17
2017-06-28T19:07:59.568Z,24.13
2017-06-28T19:08:40.469Z,24.1
2017-06-28T19:09:21.370Z,24.01
2017-06-28T19:10:02.261Z,24.11
2017-06-28T19:10:43.155Z,24.03
2017-06-28T19:11:24.042Z,24.02
2017-06-28T19:12:04.937Z,24.02
2017-06-28T19:12:45.825Z,23.96
2017-06-28T19:13:26.728Z,24.01
2017-06-28T19:14:07.610Z,24.01
2017-06-28T19:14:48.495Z,23.93
2017-06-28T19:15:29.439Z,23.95
2017-06-28T19:16:10.338Z,23.92
2017-06-28T19:16:51.241Z,23.92
2017-06-28T19:17:32.122Z,23.92
2017-06-28T19:18:13.000Z,23.92
2017-06-28T19:18:53.898Z,23.87
2017-06-28T19:19:34.784Z,23.88
2017-06-28T19:20:15.670Z,23.83
2017-06-28T19:20:56.562Z,23.78
2017-06-28T19:21:37.455Z,23.66
2017-06-28T19:22:18.338Z,23.71
2017-06-28T19:22:59.237Z,23.66
2017-06-28T19:23:40.134Z,23.68
2017-06-28T19:24:21.032Z,23.63
2017-06-28T19:25:01.930Z,23.61
2017-06-28T19:25:42.833Z,23.59
2017-06-28T19:26:23.723Z,23.58
2017-06-28T19:27:04.632Z,23.51
2017-06-28T19:27:45.517Z,23.48
2017-06-28T19:28:26.420Z,23.48
2017-06-28T19:29:07.330Z,23.44
2017-06-28T19:29:48.254Z,23.43
2017-06-28T19:30:29.143Z,23.4
2017-06-28T19:31:10.058Z,23.44
2017-06-28T19:31:50.942Z,23.4
2017-06-28T19:32:31.845Z,23.41
2017-06-28T19:33:12.737Z,23.46
2017-06-28T19:33:53.632Z,23.4
2017-06-28T19:34:34.531Z,23.34
2017-06-28T19:35:15.423Z,23.4
2017-06-28T19:35:56.316Z,23.44
2017-06-28T19:36:37.246Z,23.39
2017-06-28T19:37:18.166Z,23.31
2017-06-28T19:37:59.065Z,23.32
2017-06-28T19:38:39.960Z,23.39
2017-06-28T19:39:20.852Z,23.41
2017-06-28T19:40:01.761Z,23.46
2017-06-28T19:40:42.667Z,23.43
2017-06-28T19:41:23.562Z,23.32
2017-06-28T19:42:04.471Z,23.37
2017-06-28T19:42:45.375Z,23.28
2017-06-28T19:43:26.264Z,23.37
2017-06-28T19:44:07.174Z,23.28
2017-06-28T19:44:48.085Z,23.34
2017-06-28T19:45:28.993Z,23.21
2017-06-28T19:46:09.894Z,23.32
2017-06-28T19:46:50.779Z,23.27
2017-06-28T19:47:31.671Z,23.24
2017-06-28T19:48:12.612Z,23.36
2017-06-28T19:48:53.493Z,23.21
2017-06-28T19:49:34.370Z,23.17
2017-06-28T19:50:15.256Z,23.25
2017-06-28T19:50:56.141Z,23.23
2017-06-28T19:51:37.018Z,23.34
2017-06-28T19:52:17.966Z,23.32
2017-06-28T19:52:58.840Z,23.34
2017-06-28T19:53:39.714Z,23.24
2017-06-28T19:54:20.596Z,23.25
2017-06-28T19:55:01.508Z,23.34
2017-06-28T19:55:42.409Z,23.32
2017-06-28T19:56:23.295Z,23.27
2017-06-28T19:57:04.205Z,23.28
2017-06-28T19:57:45.075Z,23.28
2017-06-28T19:58:25.961Z,23.27
2017-06-28T19:59:06.852Z,23.32
2017-06-28T19:59:47.745Z,23.37
2017-06-28T20:00:28.639Z,23.25
2017-06-28T20:01:09.559Z,23.31
2017-06-28T20:01:50.442Z,23.25
2017-06-28T20:02:31.329Z,23.25
2017-06-28T20:03:12.230Z,23.27
2017-06-28T20:03:53.120Z,23.24
2017-06-28T20:04:34.040Z,23.27
2017-06-28T20:05:14.920Z,23.25
2017-06-28T20:05:55.793Z,23.28
2017-06-28T20:06:36.728Z,23.32
2017-06-28T20:07:17.614Z,23.23
2017-06-28T20:07:58.509Z,23.32
2017-06-28T20:08:39.417Z,23.28
2017-06-28T20:09:20.299Z,23.25
2017-06-28T20:10:58.774Z,23.28
2017-06-28T20:11:39.706Z,23.27
2017-06-28T20:12:20.593Z,23.25
2017-06-28T20:13:01.462Z,23.09
2017-06-28T20:13:42.357Z,23.09
2017-06-28T20:14:23.229Z,23.13
2017-06-28T20:16:01.657Z,23.1
2017-06-28T20:16:42.536Z,23.12
2017-06-28T20:17:23.383Z,23.13
2017-06-28T20:18:04.242Z,23.17
2017-06-28T20:18:45.157Z,23.15
2017-06-28T20:19:26.057Z,23.12
2017-06-28T20:20:06.944Z,23.12
2017-06-28T20:20:47.845Z,23.13
2017-06-28T20:21:28.760Z,23.09
2017-06-28T20:22:09.654Z,23.24
2017-06-28T20:22:50.555Z,23.24
2017-06-28T20:23:31.447Z,23.28
2017-06-28T20:24:12.347Z,23.21
2017-06-28T20:24:53.236Z,23.15
2017-06-28T20:25:34.123Z,23.21
2017-06-28T20:26:15.034Z,23.21
2017-06-28T20:26:55.933Z,23.09
2017-06-28T20:27:36.844Z,23.1
2017-06-28T20:28:17.729Z,23.09
2017-06-28T20:28:58.614Z,23.1
2017-06-28T20:29:39.515Z,23.05
2017-06-28T20:30:20.407Z,23.06
2017-06-28T20:31:01.313Z,23.1
2017-06-28T20:31:42.219Z,23.05
2017-06-28T20:32:23.108Z,23.12
2017-06-28T20:33:04.018Z,23.02
2017-06-28T20:33:44.920Z,23.02
2017-06-28T20:34:25.812Z,22.88
2017-06-28T20:35:06.713Z,22.83
2017-06-28T20:35:47.599Z,22.84
2017-06-28T20:36:28.509Z,22.84
2017-06-28T20:37:09.402Z,22.91
2017-06-28T20:37:50.304Z,23.03
2017-06-28T20:38:31.205Z,22.99
2017-06-28T20:39:12.095Z,22.98
2017-06-28T20:39:53.003Z,23
2017-06-28T20:40:33.896Z,23.13
2017-06-28T20:41:14.792Z,23.05
2017-06-28T20:41:55.699Z,23
2017-06-28T20:42:36.593Z,23.08
2017-06-28T20:43:17.505Z,23
2017-06-28T20:43:58.415Z,23.09
2017-06-28T20:44:39.336Z,22.99
2017-06-28T20:45:20.235Z,23.08
2017-06-28T20:46:01.135Z,23.03
2017-06-28T20:46:42.027Z,23.06
2017-06-28T20:47:22.951Z,22.98
2017-06-28T20:48:03.853Z,22.99
2017-06-28T20:48:44.741Z,22.84
2017-06-28T20:49:25.629Z,22.85
2017-06-28T20:50:06.524Z,22.83
2017-06-28T20:50:47.421Z,22.87
2017-06-28T20:51:28.326Z,22.83
2017-06-28T20:52:09.215Z,22.81
2017-06-28T20:52:50.123Z,22.87
2017-06-28T20:53:31.013Z,22.85
2017-06-28T20:54:11.910Z,22.91
2017-06-28T20:54:52.801Z,22.96
2017-06-28T20:55:33.702Z,22.96
2017-06-28T20:56:14.594Z,22.84
2017-06-28T20:56:55.492Z,22.84
2017-06-28T20:57:36.375Z,22.93
2017-06-28T20:58:17.270Z,22.84
2017-06-28T20:58:58.167Z,22.87
2017-06-28T20:59:39.094Z,22.73
2017-06-28T21:00:19.984Z,22.76
2017-06-28T21:01:00.873Z,22.8
2017-06-28T21:01:41.803Z,22.76
2017-06-28T21:02:22.664Z,22.69
2017-06-28T21:03:03.564Z,22.76
2017-06-28T21:03:44.461Z,22.81
2017-06-28T21:04:25.353Z,22.81
2017-06-28T21:05:06.255Z,22.83
2017-06-28T21:06:34.406Z,22.94
2017-06-28T21:07:15.308Z,22.81
2017-06-28T21:07:56.192Z,22.81
2017-06-28T21:08:37.127Z,22.87
2017-06-28T21:09:18.008Z,22.93
2017-06-28T21:09:58.967Z,22.94
2017-06-28T21:10:39.875Z,22.96
2017-06-28T21:11:20.774Z,22.96
2017-06-28T21:12:01.662Z,22.98
2017-06-28T21:12:42.565Z,23.03
2017-06-28T21:13:23.455Z,23
2017-06-28T21:14:04.341Z,22.84
2017-06-28T21:14:45.235Z,22.88
2017-06-28T21:15:26.133Z,22.87
2017-06-28T21:16:07.023Z,22.88
2017-06-28T21:16:47.921Z,22.85
2017-06-28T21:17:28.810Z,22.84
2017-06-28T21:18:09.717Z,22.96
2017-06-28T21:18:50.630Z,22.94
2017-06-28T21:19:31.549Z,22.99
2017-06-28T21:20:12.424Z,23.02
2017-06-28T21:20:53.327Z,23.03
2017-06-28T21:21:34.210Z,23.08
2017-06-28T21:22:15.084Z,23.09
2017-06-28T21:22:55.979Z,22.99
2017-06-28T21:23:36.857Z,23.1
2017-06-28T21:24:17.755Z,22.98
2017-06-28T21:24:58.659Z,22.83
2017-06-28T21:25:39.564Z,22.85
2017-06-28T21:26:20.464Z,22.88
2017-06-28T21:27:01.350Z,22.85
2017-06-28T21:27:42.268Z,22.94
2017-06-28T21:28:23.153Z,22.81
2017-06-28T21:29:04.052Z,22.9
2017-06-28T21:29:44.947Z,22.87
2017-06-28T21:30:25.841Z,22.83
2017-06-28T21:31:06.746Z,22.87
2017-06-28T21:31:47.653Z,22.78
2017-06-28T21:32:28.549Z,22.69
2017-06-28T21:33:09.462Z,22.9
2017-06-28T21:33:50.336Z,22.81
2017-06-28T21:34:31.228Z,22.81
2017-06-28T21:35:12.128Z,22.76
2017-06-28T21:35:53.017Z,22.8
2017-06-28T21:36:33.921Z,22.69
2017-06-28T21:37:14.811Z,22.62
2017-06-28T21:37:55.697Z,22.72
2017-06-28T21:38:36.588Z,22.59
2017-06-28T21:39:17.474Z,22.57
2017-06-28T21:39:58.370Z,22.54
2017-06-28T21:40:39.270Z,22.43
2017-06-28T21:41:20.171Z,22.53
2017-06-28T21:42:01.051Z,22.55
2017-06-28T21:42:41.943Z,22.59
2017-06-28T21:43:22.842Z,22.63
2017-06-28T21:44:03.736Z,22.66
2017-06-28T21:44:44.604Z,22.83
2017-06-28T21:45:25.497Z,22.76
2017-06-28T21:46:06.390Z,22.73
2017-06-28T21:46:47.295Z,22.75
2017-06-28T21:47:28.189Z,22.85
2017-06-28T21:48:09.073Z,22.81
2017-06-28T21:48:49.969Z,22.85
2017-06-28T21:49:30.862Z,22.85
2017-06-28T21:50:11.768Z,22.75
2017-06-28T21:50:52.686Z,22.75
2017-06-28T21:51:33.593Z,22.68
2017-06-28T21:52:14.495Z,22.7
2017-06-28T21:52:55.379Z,22.75
2017-06-28T21:53:36.285Z,22.7
2017-06-28T21:54:17.188Z,22.73
2017-06-28T21:54:58.085Z,22.72
2017-06-28T21:55:38.991Z,22.63
2017-06-28T21:56:19.888Z,22.62
2017-06-28T21:57:00.783Z,22.57
2017-06-28T21:57:41.673Z,22.6
2017-06-28T21:58:22.574Z,22.55
2017-06-28T21:59:03.476Z,22.6
2017-06-28T21:59:44.369Z,22.57
2017-06-28T22:00:25.274Z,22.5
2017-06-28T22:01:06.160Z,22.57
2017-06-28T22:01:47.044Z,22.62
2017-06-28T22:02:27.954Z,22.59
2017-06-28T22:03:08.842Z,22.55
2017-06-28T22:03:49.741Z,22.62
2017-06-28T22:04:30.640Z,22.66
2017-06-28T22:05:11.531Z,22.72
2017-06-28T22:05:52.422Z,22.65
2017-06-28T22:06:33.329Z,22.6
2017-06-28T22:07:14.215Z,22.53
2017-06-28T22:07:55.122Z,22.63
2017-06-28T22:08:36.030Z,22.66
2017-06-28T22:09:16.913Z,22.55
2017-06-28T22:09:57.802Z,22.55
2017-06-28T22:10:38.694Z,22.55
2017-06-28T22:11:19.594Z,22.59
2017-06-28T22:12:00.491Z,22.57
2017-06-28T22:12:41.368Z,22.59
2017-06-28T22:13:22.263Z,22.54
2017-06-28T22:14:03.169Z,22.6
2017-06-28T22:14:44.062Z,22.53
2017-06-28T22:15:24.969Z,22.39
2017-06-28T22:16:05.856Z,22.41
2017-06-28T22:16:46.756Z,22.32
2017-06-28T22:17:27.646Z,22.33
2017-06-28T22:18:08.532Z,22.32
2017-06-28T22:18:49.430Z,22.38
2017-06-28T22:19:30.340Z,22.25
2017-06-28T22:20:11.225Z,22.25
2017-06-28T22:20:52.132Z,22.29
2017-06-28T22:21:33.030Z,22.44
2017-06-28T22:22:13.923Z,22.32
2017-06-28T22:22:54.811Z,22.38
2017-06-28T22:23:35.710Z,22.41
2017-06-28T22:24:16.581Z,22.39
2017-06-28T22:24:57.492Z,22.41
2017-06-28T22:25:38.371Z,22.33
2017-06-28T22:26:19.277Z,22.41
2017-06-28T22:27:00.163Z,22.32
2017-06-28T22:27:41.047Z,22.29
2017-06-28T22:28:21.972Z,22.25
2017-06-28T22:29:02.867Z,22.25
2017-06-28T22:29:43.778Z,22.08
2017-06-28T22:30:24.663Z,21.88
2017-06-28T22:31:05.546Z,21.95
2017-06-28T22:31:46.457Z,22.07
2017-06-28T22:32:27.359Z,22.08
2017-06-28T22:33:08.268Z,22.14
2017-06-28T22:33:49.167Z,22.17
2017-06-28T22:34:30.056Z,22.18
2017-06-28T22:35:10.973Z,22.23
2017-06-28T22:35:51.865Z,22.18
2017-06-28T22:36:32.760Z,22.23
2017-06-28T22:37:13.661Z,22.22
2017-06-28T22:37:54.531Z,22.25
2017-06-28T22:38:35.434Z,22.25
2017-06-28T22:39:16.336Z,22.29
2017-06-28T22:39:57.225Z,22.11
2017-06-28T22:40:38.110Z,22.13
2017-06-28T22:41:19.021Z,22.11
2017-06-28T22:41:59.906Z,21.99
2017-06-28T22:42:40.813Z,21.95
2017-06-28T22:43:21.708Z,21.96
2017-06-28T22:44:02.603Z,22.08
2017-06-28T22:44:43.505Z,22.11